sensor_id;sensor_type;location;lat;lon;timestamp;P1;durP1;ratioP1;P2;durP2;ratioP2
33786;SDS011;29742;51.540;9.358;2022-07-15T00:03:57;2.00;;;0.82;;
33786;SDS011;29742;51.540;9.358;2022-07-15T00:08:58;3.45;;;1.40;;
33786;SDS011;29742;51.540;9.358;2022-07-15T00:13:59;2.58;;;0.70;;
33786;SDS011;29742;51.540;9.358;2022-07-15T00:19:00;2.45;;;0.70;;
33786;SDS011;29742;51.540;9.358;2022-07-15T00:24:01;3.05;;;0.88;;
33786;SDS011;29742;51.540;9.358;2022-07-15T00:29:02;1.58;;;0.63;;
33786;SDS011;29742;51.540;9.358;2022-07-15T00:34:04;3.05;;;0.65;;
33786;SDS011;29742;51.540;9.358;2022-07-15T00:39:05;2.45;;;0.70;;
33786;SDS011;29742;51.540;9.358;2022-07-15T00:44:06;1.20;;;0.35;;
33786;SDS011;29742;51.540;9.358;2022-07-15T00:49:08;2.33;;;0.63;;
33786;SDS011;29742;51.540;9.358;2022-07-15T00:54:10;2.38;;;0.50;;
33786;SDS011;29742;51.540;9.358;2022-07-15T00:59:11;2.67;;;0.80;;
33786;SDS011;29742;51.540;9.358;2022-07-15T01:04:13;4.97;;;0.93;;
33786;SDS011;29742;51.540;9.358;2022-07-15T01:09:15;2.15;;;0.75;;
33786;SDS011;29742;51.540;9.358;2022-07-15T01:14:16;2.75;;;0.80;;
33786;SDS011;29742;51.540;9.358;2022-07-15T01:19:17;1.67;;;0.73;;
33786;SDS011;29742;51.540;9.358;2022-07-15T01:24:18;5.35;;;0.77;;
33786;SDS011;29742;51.540;9.358;2022-07-15T01:29:19;1.80;;;0.80;;
33786;SDS011;29742;51.540;9.358;2022-07-15T01:34:20;2.78;;;0.60;;
33786;SDS011;29742;51.540;9.358;2022-07-15T01:39:21;4.07;;;0.80;;
33786;SDS011;29742;51.540;9.358;2022-07-15T01:44:22;3.85;;;0.90;;
33786;SDS011;29742;51.540;9.358;2022-07-15T01:49:23;1.95;;;0.57;;
33786;SDS011;29742;51.540;9.358;2022-07-15T01:54:32;4.15;;;0.77;;
33786;SDS011;29742;51.540;9.358;2022-07-15T01:59:33;3.70;;;0.95;;
33786;SDS011;29742;51.540;9.358;2022-07-15T02:04:34;3.13;;;0.90;;
33786;SDS011;29742;51.540;9.358;2022-07-15T02:09:36;1.35;;;0.70;;
33786;SDS011;29742;51.540;9.358;2022-07-15T02:14:37;0.93;;;0.65;;
33786;SDS011;29742;51.540;9.358;2022-07-15T02:19:38;5.53;;;1.10;;
33786;SDS011;29742;51.540;9.358;2022-07-15T02:24:39;3.55;;;0.75;;
33786;SDS011;29742;51.540;9.358;2022-07-15T02:29:40;3.35;;;0.65;;
33786;SDS011;29742;51.540;9.358;2022-07-15T02:34:41;4.72;;;0.93;;
33786;SDS011;29742;51.540;9.358;2022-07-15T02:39:42;1.48;;;0.57;;
33786;SDS011;29742;51.540;9.358;2022-07-15T02:44:43;2.55;;;0.80;;
33786;SDS011;29742;51.540;9.358;2022-07-15T02:49:44;2.03;;;0.75;;
33786;SDS011;29742;51.540;9.358;2022-07-15T02:54:45;4.30;;;1.25;;
33786;SDS011;29742;51.540;9.358;2022-07-15T02:59:46;4.00;;;0.90;;
33786;SDS011;29742;51.540;9.358;2022-07-15T03:04:47;3.20;;;0.65;;
33786;SDS011;29742;51.540;9.358;2022-07-15T03:09:48;3.03;;;0.93;;
33786;SDS011;29742;51.540;9.358;2022-07-15T03:14:49;2.40;;;1.58;;
33786;SDS011;29742;51.540;9.358;2022-07-15T03:19:50;2.03;;;0.75;;
33786;SDS011;29742;51.540;9.358;2022-07-15T03:24:51;1.67;;;0.68;;
33786;SDS011;29742;51.540;9.358;2022-07-15T03:29:52;1.80;;;0.80;;
33786;SDS011;29742;51.540;9.358;2022-07-15T03:34:53;2.03;;;0.70;;
33786;SDS011;29742;51.540;9.358;2022-07-15T03:39:56;4.23;;;1.60;;
33786;SDS011;29742;51.540;9.358;2022-07-15T03:44:57;1.65;;;0.75;;
33786;SDS011;29742;51.540;9.358;2022-07-15T03:49:58;4.65;;;1.40;;
33786;SDS011;29742;51.540;9.358;2022-07-15T03:54:59;1.58;;;0.80;;
33786;SDS011;29742;51.540;9.358;2022-07-15T04:00:00;2.10;;;0.88;;
33786;SDS011;29742;51.540;9.358;2022-07-15T04:05:01;2.60;;;1.10;;
33786;SDS011;29742;51.540;9.358;2022-07-15T04:10:02;1.48;;;0.70;;
33786;SDS011;29742;51.540;9.358;2022-07-15T04:15:03;2.17;;;0.95;;
33786;SDS011;29742;51.540;9.358;2022-07-15T04:20:05;3.60;;;1.27;;
33786;SDS011;29742;51.540;9.358;2022-07-15T04:25:06;4.50;;;1.42;;
33786;SDS011;29742;51.540;9.358;2022-07-15T04:30:08;3.03;;;0.90;;
33786;SDS011;29742;51.540;9.358;2022-07-15T04:35:09;2.75;;;0.88;;
33786;SDS011;29742;51.540;9.358;2022-07-15T04:40:10;4.70;;;1.25;;
33786;SDS011;29742;51.540;9.358;2022-07-15T04:45:11;2.47;;;1.13;;
33786;SDS011;29742;51.540;9.358;2022-07-15T04:50:13;4.90;;;1.15;;
33786;SDS011;29742;51.540;9.358;2022-07-15T04:55:32;4.18;;;0.88;;
33786;SDS011;29742;51.540;9.358;2022-07-15T05:00:33;3.40;;;0.90;;
33786;SDS011;29742;51.540;9.358;2022-07-15T05:05:34;3.53;;;1.13;;
33786;SDS011;29742;51.540;9.358;2022-07-15T05:10:35;1.95;;;1.00;;
33786;SDS011;29742;51.540;9.358;2022-07-15T05:15:36;2.42;;;1.25;;
33786;SDS011;29742;51.540;9.358;2022-07-15T05:20:37;7.05;;;1.85;;
33786;SDS011;29742;51.540;9.358;2022-07-15T05:25:38;2.97;;;1.13;;
33786;SDS011;29742;51.540;9.358;2022-07-15T05:30:39;3.97;;;1.20;;
33786;SDS011;29742;51.540;9.358;2022-07-15T05:35:40;4.55;;;1.13;;
33786;SDS011;29742;51.540;9.358;2022-07-15T05:40:41;6.45;;;1.48;;
33786;SDS011;29742;51.540;9.358;2022-07-15T05:45:42;4.55;;;1.13;;
33786;SDS011;29742;51.540;9.358;2022-07-15T05:50:43;6.40;;;1.85;;
33786;SDS011;29742;51.540;9.358;2022-07-15T05:55:44;10.68;;;2.38;;
33786;SDS011;29742;51.540;9.358;2022-07-15T06:00:45;45.15;;;5.60;;
33786;SDS011;29742;51.540;9.358;2022-07-15T06:05:46;31.25;;;4.00;;
33786;SDS011;29742;51.540;9.358;2022-07-15T06:10:47;19.48;;;4.13;;
33786;SDS011;29742;51.540;9.358;2022-07-15T06:15:48;18.70;;;3.75;;
33786;SDS011;29742;51.540;9.358;2022-07-15T06:20:49;15.02;;;3.88;;
33786;SDS011;29742;51.540;9.358;2022-07-15T06:25:50;12.68;;;3.35;;
33786;SDS011;29742;51.540;9.358;2022-07-15T06:30:51;6.22;;;1.88;;
33786;SDS011;29742;51.540;9.358;2022-07-15T06:35:52;5.07;;;1.40;;
33786;SDS011;29742;51.540;9.358;2022-07-15T06:40:54;14.73;;;1.70;;
33786;SDS011;29742;51.540;9.358;2022-07-15T06:45:55;21.67;;;2.05;;
33786;SDS011;29742;51.540;9.358;2022-07-15T06:50:56;14.27;;;1.60;;
33786;SDS011;29742;51.540;9.358;2022-07-15T06:55:57;7.13;;;1.58;;
33786;SDS011;29742;51.540;9.358;2022-07-15T07:00:58;12.85;;;1.90;;
33786;SDS011;29742;51.540;9.358;2022-07-15T07:05:59;2.97;;;1.35;;
33786;SDS011;29742;51.540;9.358;2022-07-15T07:11:00;15.18;;;2.08;;
33786;SDS011;29742;51.540;9.358;2022-07-15T07:16:01;5.03;;;1.40;;
33786;SDS011;29742;51.540;9.358;2022-07-15T07:21:04;8.88;;;1.30;;
33786;SDS011;29742;51.540;9.358;2022-07-15T07:26:09;4.80;;;1.05;;
33786;SDS011;29742;51.540;9.358;2022-07-15T07:31:10;9.68;;;1.48;;
33786;SDS011;29742;51.540;9.358;2022-07-15T07:36:11;12.30;;;1.33;;
33786;SDS011;29742;51.540;9.358;2022-07-15T07:41:12;8.02;;;1.40;;
33786;SDS011;29742;51.540;9.358;2022-07-15T07:46:14;8.20;;;1.20;;
33786;SDS011;29742;51.540;9.358;2022-07-15T07:51:17;4.80;;;1.10;;
33786;SDS011;29742;51.540;9.358;2022-07-15T07:56:18;9.10;;;1.27;;
33786;SDS011;29742;51.540;9.358;2022-07-15T08:01:19;5.07;;;1.40;;
33786;SDS011;29742;51.540;9.358;2022-07-15T08:06:20;7.65;;;1.98;;
33786;SDS011;29742;51.540;9.358;2022-07-15T08:11:22;7.22;;;1.70;;
33786;SDS011;29742;51.540;9.358;2022-07-15T08:16:23;7.57;;;1.27;;
33786;SDS011;29742;51.540;9.358;2022-07-15T08:21:24;7.15;;;1.20;;
33786;SDS011;29742;51.540;9.358;2022-07-15T08:26:25;6.32;;;1.08;;
33786;SDS011;29742;51.540;9.358;2022-07-15T08:31:26;24.30;;;4.78;;
33786;SDS011;29742;51.540;9.358;2022-07-15T08:36:27;43.53;;;7.57;;
33786;SDS011;29742;51.540;9.358;2022-07-15T08:41:28;26.85;;;4.28;;
33786;SDS011;29742;51.540;9.358;2022-07-15T08:46:29;22.85;;;3.92;;
33786;SDS011;29742;51.540;9.358;2022-07-15T08:51:32;12.50;;;2.85;;
33786;SDS011;29742;51.540;9.358;2022-07-15T08:56:37;12.30;;;2.95;;
33786;SDS011;29742;51.540;9.358;2022-07-15T09:01:42;7.80;;;2.63;;
33786;SDS011;29742;51.540;9.358;2022-07-15T09:06:44;13.68;;;2.95;;
33786;SDS011;29742;51.540;9.358;2022-07-15T09:11:53;11.25;;;2.38;;
33786;SDS011;29742;51.540;9.358;2022-07-15T09:17:28;10.13;;;2.38;;
33786;SDS011;29742;51.540;9.358;2022-07-15T09:22:22;10.82;;;2.65;;
33786;SDS011;29742;51.540;9.358;2022-07-15T09:27:26;11.85;;;1.80;;
33786;SDS011;29742;51.540;9.358;2022-07-15T09:32:28;9.05;;;1.75;;
33786;SDS011;29742;51.540;9.358;2022-07-15T09:37:54;7.57;;;1.55;;
33786;SDS011;29742;51.540;9.358;2022-07-15T09:43:02;14.38;;;1.83;;
33786;SDS011;29742;51.540;9.358;2022-07-15T09:48:08;9.00;;;1.63;;
33786;SDS011;29742;51.540;9.358;2022-07-15T09:53:10;7.15;;;1.75;;
33786;SDS011;29742;51.540;9.358;2022-07-15T09:58:11;6.93;;;1.52;;
33786;SDS011;29742;51.540;9.358;2022-07-15T10:03:12;6.25;;;1.98;;
33786;SDS011;29742;51.540;9.358;2022-07-15T10:08:14;6.63;;;1.98;;
33786;SDS011;29742;51.540;9.358;2022-07-15T10:18:32;5.57;;;1.55;;
33786;SDS011;29742;51.540;9.358;2022-07-15T10:28:57;7.57;;;1.83;;
33786;SDS011;29742;51.540;9.358;2022-07-15T10:39:03;3.67;;;1.10;;
33786;SDS011;29742;51.540;9.358;2022-07-15T10:44:10;7.82;;;1.75;;
33786;SDS011;29742;51.540;9.358;2022-07-15T10:59:20;3.15;;;1.45;;
33786;SDS011;29742;51.540;9.358;2022-07-15T11:04:24;3.25;;;1.50;;
33786;SDS011;29742;51.540;9.358;2022-07-15T11:19:46;7.95;;;1.33;;
33786;SDS011;29742;51.540;9.358;2022-07-15T11:24:48;6.40;;;1.40;;
33786;SDS011;29742;51.540;9.358;2022-07-15T11:29:53;5.93;;;1.23;;
33786;SDS011;29742;51.540;9.358;2022-07-15T11:34:59;7.63;;;1.23;;
33786;SDS011;29742;51.540;9.358;2022-07-15T11:40:12;10.85;;;1.58;;
33786;SDS011;29742;51.540;9.358;2022-07-15T11:50:35;18.80;;;1.48;;
33786;SDS011;29742;51.540;9.358;2022-07-15T11:55:46;8.23;;;1.63;;
33786;SDS011;29742;51.540;9.358;2022-07-15T12:00:47;6.25;;;1.27;;
33786;SDS011;29742;51.540;9.358;2022-07-15T12:05:59;5.82;;;1.08;;
33786;SDS011;29742;51.540;9.358;2022-07-15T12:11:00;3.45;;;1.08;;
33786;SDS011;29742;51.540;9.358;2022-07-15T12:16:01;5.43;;;1.40;;
33786;SDS011;29742;51.540;9.358;2022-07-15T12:21:02;5.10;;;1.55;;
33786;SDS011;29742;51.540;9.358;2022-07-15T12:26:07;4.30;;;0.90;;
33786;SDS011;29742;51.540;9.358;2022-07-15T12:31:08;8.77;;;1.38;;
33786;SDS011;29742;51.540;9.358;2022-07-15T12:36:13;6.20;;;0.93;;
33786;SDS011;29742;51.540;9.358;2022-07-15T12:41:24;4.90;;;1.85;;
33786;SDS011;29742;51.540;9.358;2022-07-15T12:51:45;2.42;;;0.70;;
33786;SDS011;29742;51.540;9.358;2022-07-15T12:56:50;2.60;;;1.02;;
33786;SDS011;29742;51.540;9.358;2022-07-15T13:02:00;9.52;;;1.08;;
33786;SDS011;29742;51.540;9.358;2022-07-15T13:07:02;3.30;;;0.85;;
33786;SDS011;29742;51.540;9.358;2022-07-15T13:12:03;6.95;;;1.20;;
33786;SDS011;29742;51.540;9.358;2022-07-15T13:17:04;4.45;;;0.93;;
33786;SDS011;29742;51.540;9.358;2022-07-15T13:22:05;5.32;;;0.90;;
33786;SDS011;29742;51.540;9.358;2022-07-15T13:27:06;7.30;;;2.13;;
33786;SDS011;29742;51.540;9.358;2022-07-15T13:32:07;7.50;;;1.30;;
33786;SDS011;29742;51.540;9.358;2022-07-15T13:37:08;5.75;;;1.10;;
33786;SDS011;29742;51.540;9.358;2022-07-15T13:42:09;10.48;;;1.70;;
33786;SDS011;29742;51.540;9.358;2022-07-15T13:47:10;6.47;;;0.85;;
33786;SDS011;29742;51.540;9.358;2022-07-15T13:52:11;7.35;;;1.23;;
33786;SDS011;29742;51.540;9.358;2022-07-15T13:57:12;7.55;;;1.98;;
33786;SDS011;29742;51.540;9.358;2022-07-15T14:02:14;5.30;;;1.05;;
33786;SDS011;29742;51.540;9.358;2022-07-15T14:07:15;6.30;;;1.23;;
33786;SDS011;29742;51.540;9.358;2022-07-15T14:12:16;5.10;;;1.33;;
33786;SDS011;29742;51.540;9.358;2022-07-15T14:17:17;2.47;;;0.77;;
33786;SDS011;29742;51.540;9.358;2022-07-15T14:22:18;5.65;;;1.05;;
33786;SDS011;29742;51.540;9.358;2022-07-15T14:27:19;2.58;;;1.00;;
33786;SDS011;29742;51.540;9.358;2022-07-15T14:32:20;6.15;;;1.10;;
33786;SDS011;29742;51.540;9.358;2022-07-15T14:37:21;2.55;;;0.60;;
33786;SDS011;29742;51.540;9.358;2022-07-15T14:42:22;6.45;;;0.90;;
33786;SDS011;29742;51.540;9.358;2022-07-15T14:47:23;5.40;;;0.90;;
33786;SDS011;29742;51.540;9.358;2022-07-15T14:52:24;2.72;;;0.80;;
33786;SDS011;29742;51.540;9.358;2022-07-15T14:57:25;3.63;;;0.75;;
33786;SDS011;29742;51.540;9.358;2022-07-15T15:02:26;3.85;;;0.70;;
33786;SDS011;29742;51.540;9.358;2022-07-15T15:07:27;3.22;;;0.88;;
33786;SDS011;29742;51.540;9.358;2022-07-15T15:12:28;8.02;;;1.00;;
33786;SDS011;29742;51.540;9.358;2022-07-15T15:17:29;5.03;;;0.77;;
33786;SDS011;29742;51.540;9.358;2022-07-15T15:22:30;2.38;;;0.80;;
33786;SDS011;29742;51.540;9.358;2022-07-15T15:27:31;2.22;;;0.65;;
33786;SDS011;29742;51.540;9.358;2022-07-15T15:32:33;1.90;;;0.63;;
33786;SDS011;29742;51.540;9.358;2022-07-15T15:37:34;5.97;;;1.08;;
33786;SDS011;29742;51.540;9.358;2022-07-15T15:42:35;5.75;;;1.50;;
33786;SDS011;29742;51.540;9.358;2022-07-15T15:47:36;4.72;;;0.90;;
33786;SDS011;29742;51.540;9.358;2022-07-15T15:52:37;3.20;;;0.77;;
33786;SDS011;29742;51.540;9.358;2022-07-15T15:57:38;1.95;;;0.45;;
33786;SDS011;29742;51.540;9.358;2022-07-15T16:02:39;6.97;;;0.80;;
33786;SDS011;29742;51.540;9.358;2022-07-15T16:07:41;4.80;;;0.80;;
33786;SDS011;29742;51.540;9.358;2022-07-15T16:12:41;9.15;;;2.25;;
33786;SDS011;29742;51.540;9.358;2022-07-15T16:17:42;7.05;;;1.42;;
33786;SDS011;29742;51.540;9.358;2022-07-15T16:22:43;7.30;;;1.42;;
33786;SDS011;29742;51.540;9.358;2022-07-15T16:28:01;12.15;;;2.00;;
33786;SDS011;29742;51.540;9.358;2022-07-15T16:33:02;22.65;;;2.50;;
33786;SDS011;29742;51.540;9.358;2022-07-15T16:38:03;7.75;;;1.23;;
33786;SDS011;29742;51.540;9.358;2022-07-15T16:43:05;11.80;;;1.77;;
33786;SDS011;29742;51.540;9.358;2022-07-15T16:48:07;14.98;;;2.35;;
33786;SDS011;29742;51.540;9.358;2022-07-15T16:53:08;7.15;;;2.35;;
33786;SDS011;29742;51.540;9.358;2022-07-15T16:58:09;7.63;;;1.48;;
33786;SDS011;29742;51.540;9.358;2022-07-15T17:03:10;5.03;;;1.00;;
33786;SDS011;29742;51.540;9.358;2022-07-15T17:08:11;4.63;;;0.90;;
33786;SDS011;29742;51.540;9.358;2022-07-15T17:13:12;2.20;;;0.63;;
33786;SDS011;29742;51.540;9.358;2022-07-15T17:18:13;6.93;;;1.00;;
33786;SDS011;29742;51.540;9.358;2022-07-15T17:23:14;3.38;;;0.98;;
33786;SDS011;29742;51.540;9.358;2022-07-15T17:28:15;2.05;;;0.65;;
33786;SDS011;29742;51.540;9.358;2022-07-15T17:33:16;0.68;;;0.40;;
33786;SDS011;29742;51.540;9.358;2022-07-15T17:38:17;4.35;;;0.85;;
33786;SDS011;29742;51.540;9.358;2022-07-15T17:43:18;0.95;;;0.50;;
33786;SDS011;29742;51.540;9.358;2022-07-15T17:48:19;3.30;;;0.55;;
33786;SDS011;29742;51.540;9.358;2022-07-15T17:53:20;1.83;;;0.60;;
33786;SDS011;29742;51.540;9.358;2022-07-15T17:58:21;2.00;;;0.43;;
33786;SDS011;29742;51.540;9.358;2022-07-15T18:03:22;1.42;;;0.43;;
33786;SDS011;29742;51.540;9.358;2022-07-15T18:08:23;1.00;;;0.47;;
33786;SDS011;29742;51.540;9.358;2022-07-15T18:13:24;1.27;;;0.35;;
33786;SDS011;29742;51.540;9.358;2022-07-15T18:18:26;1.17;;;0.32;;
33786;SDS011;29742;51.540;9.358;2022-07-15T18:23:27;1.15;;;0.47;;
33786;SDS011;29742;51.540;9.358;2022-07-15T18:28:28;2.25;;;0.40;;
33786;SDS011;29742;51.540;9.358;2022-07-15T18:33:30;1.23;;;0.55;;
33786;SDS011;29742;51.540;9.358;2022-07-15T18:38:31;0.95;;;0.50;;
33786;SDS011;29742;51.540;9.358;2022-07-15T18:43:33;8.90;;;0.95;;
33786;SDS011;29742;51.540;9.358;2022-07-15T18:48:34;3.00;;;0.50;;
33786;SDS011;29742;51.540;9.358;2022-07-15T18:53:36;6.85;;;0.60;;
33786;SDS011;29742;51.540;9.358;2022-07-15T18:58:37;4.65;;;0.70;;
33786;SDS011;29742;51.540;9.358;2022-07-15T19:03:38;4.97;;;0.60;;
33786;SDS011;29742;51.540;9.358;2022-07-15T19:08:39;3.60;;;0.57;;
33786;SDS011;29742;51.540;9.358;2022-07-15T19:13:40;4.07;;;0.85;;
33786;SDS011;29742;51.540;9.358;2022-07-15T19:18:41;1.55;;;0.50;;
33786;SDS011;29742;51.540;9.358;2022-07-15T19:23:42;2.63;;;1.15;;
33786;SDS011;29742;51.540;9.358;2022-07-15T19:28:43;6.18;;;0.57;;
33786;SDS011;29742;51.540;9.358;2022-07-15T19:33:44;2.85;;;1.13;;
33786;SDS011;29742;51.540;9.358;2022-07-15T19:38:45;5.88;;;0.70;;
33786;SDS011;29742;51.540;9.358;2022-07-15T19:43:46;5.22;;;1.02;;
33786;SDS011;29742;51.540;9.358;2022-07-15T19:48:47;3.55;;;1.10;;
33786;SDS011;29742;51.540;9.358;2022-07-15T19:53:48;3.67;;;1.13;;
33786;SDS011;29742;51.540;9.358;2022-07-15T19:58:49;4.68;;;0.95;;
33786;SDS011;29742;51.540;9.358;2022-07-15T20:04:10;4.55;;;0.57;;
33786;SDS011;29742;51.540;9.358;2022-07-15T20:09:11;6.65;;;1.08;;
33786;SDS011;29742;51.540;9.358;2022-07-15T20:14:13;2.50;;;0.70;;
33786;SDS011;29742;51.540;9.358;2022-07-15T20:19:13;2.80;;;0.40;;
33786;SDS011;29742;51.540;9.358;2022-07-15T20:24:14;4.20;;;0.70;;
33786;SDS011;29742;51.540;9.358;2022-07-15T20:29:15;1.85;;;0.60;;
33786;SDS011;29742;51.540;9.358;2022-07-15T20:34:17;3.78;;;0.52;;
33786;SDS011;29742;51.540;9.358;2022-07-15T20:39:18;1.85;;;0.43;;
33786;SDS011;29742;51.540;9.358;2022-07-15T20:44:19;3.05;;;0.60;;
33786;SDS011;29742;51.540;9.358;2022-07-15T20:49:20;5.97;;;0.40;;
33786;SDS011;29742;51.540;9.358;2022-07-15T20:54:21;2.05;;;0.50;;
33786;SDS011;29742;51.540;9.358;2022-07-15T20:59:24;2.65;;;1.15;;
33786;SDS011;29742;51.540;9.358;2022-07-15T21:04:25;1.13;;;0.55;;
33786;SDS011;29742;51.540;9.358;2022-07-15T21:09:26;3.05;;;0.70;;
33786;SDS011;29742;51.540;9.358;2022-07-15T21:14:27;3.30;;;0.50;;
33786;SDS011;29742;51.540;9.358;2022-07-15T21:19:28;1.38;;;0.43;;
33786;SDS011;29742;51.540;9.358;2022-07-15T21:24:29;3.10;;;0.68;;
33786;SDS011;29742;51.540;9.358;2022-07-15T21:29:48;1.48;;;0.75;;
33786;SDS011;29742;51.540;9.358;2022-07-15T21:34:49;0.93;;;0.45;;
33786;SDS011;29742;51.540;9.358;2022-07-15T21:39:51;1.48;;;0.70;;
33786;SDS011;29742;51.540;9.358;2022-07-15T21:44:52;3.22;;;0.82;;
33786;SDS011;29742;51.540;9.358;2022-07-15T21:49:53;4.55;;;0.70;;
33786;SDS011;29742;51.540;9.358;2022-07-15T21:54:54;1.27;;;0.57;;
33786;SDS011;29742;51.540;9.358;2022-07-15T21:59:57;1.92;;;0.55;;
33786;SDS011;29742;51.540;9.358;2022-07-15T22:04:58;3.10;;;0.73;;
33786;SDS011;29742;51.540;9.358;2022-07-15T22:09:59;0.95;;;0.40;;
33786;SDS011;29742;51.540;9.358;2022-07-15T22:15:00;1.65;;;0.50;;
33786;SDS011;29742;51.540;9.358;2022-07-15T22:20:01;1.10;;;0.40;;
33786;SDS011;29742;51.540;9.358;2022-07-15T22:25:02;2.40;;;0.55;;
33786;SDS011;29742;51.540;9.358;2022-07-15T22:30:04;2.45;;;0.68;;
33786;SDS011;29742;51.540;9.358;2022-07-15T22:35:05;2.47;;;0.52;;
33786;SDS011;29742;51.540;9.358;2022-07-15T22:40:06;1.02;;;0.47;;
33786;SDS011;29742;51.540;9.358;2022-07-15T22:45:07;0.75;;;0.30;;
33786;SDS011;29742;51.540;9.358;2022-07-15T22:50:09;0.85;;;0.40;;
33786;SDS011;29742;51.540;9.358;2022-07-15T22:55:10;2.53;;;0.70;;
33786;SDS011;29742;51.540;9.358;2022-07-15T23:00:12;1.85;;;0.47;;
33786;SDS011;29742;51.540;9.358;2022-07-15T23:05:13;0.88;;;0.47;;
33786;SDS011;29742;51.540;9.358;2022-07-15T23:10:14;2.03;;;0.52;;
33786;SDS011;29742;51.540;9.358;2022-07-15T23:15:15;3.63;;;0.70;;
33786;SDS011;29742;51.540;9.358;2022-07-15T23:20:16;1.40;;;0.50;;
33786;SDS011;29742;51.540;9.358;2022-07-15T23:25:16;2.28;;;0.82;;
33786;SDS011;29742;51.540;9.358;2022-07-15T23:30:17;3.15;;;0.60;;
33786;SDS011;29742;51.540;9.358;2022-07-15T23:35:18;0.82;;;0.38;;
33786;SDS011;29742;51.540;9.358;2022-07-15T23:40:19;2.78;;;0.50;;
33786;SDS011;29742;51.540;9.358;2022-07-15T23:45:20;1.70;;;0.85;;
33786;SDS011;29742;51.540;9.358;2022-07-15T23:50:21;2.72;;;0.30;;
33786;SDS011;29742;51.540;9.358;2022-07-15T23:55:22;1.48;;;0.57;;
